Time;durP1;ratioP1;P1;durP2;ratioP2;P2;SDS_P1;SDS_P2;PMS_P1;PMS_P2;Temp;Humidity;BMP_temperature;BMP_pressure;BME280_temperature;BME280_humidity;BME280_pressure;Samples;Min_cycle;Max_cycle;Signal;HPM_P1;HPM_P2
2023/04/08 00:00:12;;;;;;;20.17;13.45;;;;;;;;;;4979736;28;20120;-80
2023/04/08 00:02:39;;;;;;;25.02;13.35;;;;;;;;;;4978923;28;20036;-80
2023/04/08 00:05:06;;;;;;;27.77;15.88;;;;;;;;;;4995052;28;20523;-81
2023/04/08 00:07:32;;;;;;;23.08;14.23;;;;;;;;;;4982982;28;20050;-80
2023/04/08 00:09:58;;;;;;;21.05;14.40;;;;;;;;;;4981608;28;20053;-79
2023/04/08 00:12:24;;;;;;;19.33;13.68;;;;;;;;;;4981476;28;20109;-81
2023/04/08 00:14:49;;;;;;;22.23;14.57;;;;;;;;;;4979355;28;20100;-81
2023/04/08 00:17:16;;;;;;;21.67;14.77;;;;;;;;;;4979797;28;20026;-80
2023/04/08 00:19:43;;;;;;;23.65;15.38;;;;;;;;;;4978708;28;20057;-81
2023/04/08 00:22:10;;;;;;;21.75;14.43;;;;;;;;;;5000270;28;20030;-80
2023/04/08 00:24:36;;;;;;;26.35;15.23;;;;;;;;;;4985727;28;20070;-80
2023/04/08 00:27:02;;;;;;;24.90;15.93;;;;;;;;;;4981998;28;20086;-79
2023/04/08 00:29:29;;;;;;;23.77;15.32;;;;;;;;;;4982209;28;20471;-81
2023/04/08 00:31:55;;;;;;;20.20;15.00;;;;;;;;;;4982837;28;20105;-81
2023/04/08 00:34:23;;;;;;;22.75;16.00;;;;;;;;;;4998308;28;20022;-81
2023/04/08 00:36:49;;;;;;;23.55;15.88;;;;;;;;;;4994889;28;20169;-80
2023/04/08 00:39:15;;;;;;;21.63;15.05;;;;;;;;;;4984120;28;20121;-80
2023/04/08 00:41:40;;;;;;;20.42;15.35;;;;;;;;;;4989007;28;20494;-80
2023/04/08 00:44:06;;;;;;;22.75;15.70;;;;;;;;;;4982083;28;20038;-80
2023/04/08 00:46:35;;;;;;;21.77;15.95;;;;;;;;;;4998155;28;20026;-80
2023/04/08 00:49:01;;;;;;;25.65;17.73;;;;;;;;;;4993984;28;20036;-80
2023/04/08 00:51:28;;;;;;;27.23;18.15;;;;;;;;;;5009445;28;20112;-81
2023/04/08 00:53:54;;;;;;;28.00;18.63;;;;;;;;;;4995807;28;20457;-80
2023/04/08 00:56:21;;;;;;;27.20;19.02;;;;;;;;;;4978317;28;20062;-79
2023/04/08 00:58:49;;;;;;;32.83;20.83;;;;;;;;;;4994659;28;20455;-79
2023/04/08 01:01:39;;;;;;;36.25;23.33;;;;;;;;;;5010738;28;20030;-78
2023/04/08 01:04:26;;;;;;;35.33;22.33;;;;;;;;;;4982537;28;20042;-79
2023/04/08 01:07:14;;;;;;;30.58;21.25;;;;;;;;;;4994197;28;20045;-80
2023/04/08 01:09:49;;;;;;;27.17;18.73;;;;;;;;;;4995417;28;20484;-80
2023/04/08 01:12:20;;;;;;;27.92;17.45;;;;;;;;;;4995478;28;20431;-82
2023/04/08 01:14:52;;;;;;;24.42;15.90;;;;;;;;;;4993934;28;20125;-80
2023/04/08 01:17:19;;;;;;;21.98;15.73;;;;;;;;;;4995242;28;20495;-79
2023/04/08 01:19:47;;;;;;;23.55;16.20;;;;;;;;;;4977906;28;20030;-79
2023/04/08 01:22:32;;;;;;;25.23;15.02;;;;;;;;;;4995153;28;20393;-79
2023/04/08 01:25:31;;;;;;;20.80;15.05;;;;;;;;;;4993761;28;20042;-79
2023/04/08 01:28:00;;;;;;;26.63;15.60;;;;;;;;;;4993700;28;20042;-79
2023/04/08 01:30:29;;;;;;;35.15;19.23;;;;;;;;;;4995319;28;20397;-80
2023/04/08 01:32:58;;;;;;;22.90;15.50;;;;;;;;;;4993745;28;20027;-80
2023/04/08 01:35:24;;;;;;;22.42;15.70;;;;;;;;;;4993042;28;20042;-80
2023/04/08 01:37:52;;;;;;;27.80;16.70;;;;;;;;;;4993531;28;20046;-80
2023/04/08 01:40:19;;;;;;;21.17;15.52;;;;;;;;;;4993539;28;20034;-80
2023/04/08 01:42:50;;;;;;;21.42;14.75;;;;;;;;;;4978058;28;20104;-80
2023/04/08 01:45:17;;;;;;;20.60;14.32;;;;;;;;;;4993493;28;20030;-79
2023/04/08 01:47:47;;;;;;;21.63;14.70;;;;;;;;;;4978005;28;20026;-79
2023/04/08 01:50:15;;;;;;;27.02;16.70;;;;;;;;;;4993855;28;20072;-80
2023/04/08 01:52:44;;;;;;;27.10;16.58;;;;;;;;;;4993666;28;20102;-80
2023/04/08 01:55:11;;;;;;;24.55;15.63;;;;;;;;;;4992897;28;20185;-79
2023/04/08 01:57:38;;;;;;;19.58;13.98;;;;;;;;;;4993292;28;20058;-79
2023/04/08 02:00:10;;;;;;;21.08;14.18;;;;;;;;;;4994629;28;20054;-79
2023/04/08 02:02:51;;;;;;;27.85;15.57;;;;;;;;;;4994668;28;20034;-79
2023/04/08 02:05:19;;;;;;;22.48;14.65;;;;;;;;;;4993266;28;20387;-79
2023/04/08 02:07:47;;;;;;;22.63;15.30;;;;;;;;;;4993382;28;20049;-80
2023/04/08 02:10:13;;;;;;;27.75;15.88;;;;;;;;;;4994381;28;20440;-80
2023/04/08 02:12:39;;;;;;;21.08;14.60;;;;;;;;;;4977019;28;20121;-80
2023/04/08 02:15:11;;;;;;;21.67;14.30;;;;;;;;;;4994152;28;20085;-80
2023/04/08 02:17:51;;;;;;;19.92;13.52;;;;;;;;;;5008519;28;20048;-80
2023/04/08 02:20:27;;;;;;;22.05;13.63;;;;;;;;;;4992874;28;20034;-80
2023/04/08 02:23:07;;;;;;;25.98;15.20;;;;;;;;;;4994113;28;20041;-80
2023/04/08 02:25:36;;;;;;;22.35;14.13;;;;;;;;;;4994093;28;20081;-80
2023/04/08 02:28:05;;;;;;;37.80;15.80;;;;;;;;;;4992892;28;20045;-80
2023/04/08 02:30:33;;;;;;;28.02;15.98;;;;;;;;;;4992674;28;20046;-80
2023/04/08 02:33:02;;;;;;;25.35;14.98;;;;;;;;;;4993740;28;20026;-81
2023/04/08 02:35:28;;;;;;;25.70;15.15;;;;;;;;;;4992402;28;20042;-80
2023/04/08 02:37:54;;;;;;;22.23;14.50;;;;;;;;;;4993987;28;20118;-80
2023/04/08 02:40:27;;;;;;;20.90;14.50;;;;;;;;;;4993738;28;20105;-81
2023/04/08 02:42:55;;;;;;;17.45;13.85;;;;;;;;;;4993622;28;20035;-81
2023/04/08 02:45:21;;;;;;;19.52;14.30;;;;;;;;;;5008795;28;20029;-81
2023/04/08 02:47:49;;;;;;;20.52;14.50;;;;;;;;;;4976411;28;20152;-79
2023/04/08 02:50:15;;;;;;;20.17;14.18;;;;;;;;;;4993431;28;20105;-81
2023/04/08 02:52:42;;;;;;;21.15;14.60;;;;;;;;;;4992399;28;20038;-80
2023/04/08 02:55:11;;;;;;;28.63;14.13;;;;;;;;;;4992515;28;20060;-79
2023/04/08 02:57:39;;;;;;;25.33;14.35;;;;;;;;;;4992897;28;20042;-79
2023/04/08 03:00:07;;;;;;;22.20;13.82;;;;;;;;;;4992446;28;20030;-78
2023/04/08 03:02:34;;;;;;;31.65;15.35;;;;;;;;;;4992969;28;20053;-80
2023/04/08 03:05:00;;;;;;;33.80;15.52;;;;;;;;;;4992991;28;20038;-80
2023/04/08 03:07:26;;;;;;;24.42;14.43;;;;;;;;;;4993383;28;20531;-79
2023/04/08 03:09:54;;;;;;;23.77;14.85;;;;;;;;;;4993460;28;20030;-80
2023/04/08 03:12:21;;;;;;;23.08;14.07;;;;;;;;;;4993250;28;20053;-80
2023/04/08 03:14:47;;;;;;;24.75;15.82;;;;;;;;;;4993362;28;20042;-79
2023/04/08 03:17:13;;;;;;;25.30;14.65;;;;;;;;;;4993315;28;20091;-80
2023/04/08 03:19:42;;;;;;;25.95;15.68;;;;;;;;;;4991978;28;20031;-81
2023/04/08 03:22:09;;;;;;;28.40;16.80;;;;;;;;;;4992559;28;20042;-80
2023/04/08 03:24:35;;;;;;;26.58;15.50;;;;;;;;;;4992648;28;20120;-80
2023/04/08 03:27:03;;;;;;;26.20;15.70;;;;;;;;;;4993290;28;20068;-80
2023/04/08 03:29:28;;;;;;;25.80;15.00;;;;;;;;;;4991898;28;20031;-79
2023/04/08 03:31:54;;;;;;;23.67;14.88;;;;;;;;;;4993324;28;20045;-80
2023/04/08 03:34:21;;;;;;;24.98;15.10;;;;;;;;;;4991879;28;20026;-79
2023/04/08 03:36:47;;;;;;;24.33;15.15;;;;;;;;;;4992966;28;20169;-80
2023/04/08 03:39:13;;;;;;;28.60;15.70;;;;;;;;;;4992031;28;20030;-80
2023/04/08 03:41:38;;;;;;;24.10;14.48;;;;;;;;;;4993401;28;20116;-79
2023/04/08 03:44:04;;;;;;;24.58;14.85;;;;;;;;;;4993515;28;20483;-79
2023/04/08 03:46:31;;;;;;;22.65;14.27;;;;;;;;;;4960595;28;20034;-80
2023/04/08 03:48:57;;;;;;;22.58;14.00;;;;;;;;;;4993279;28;20038;-80
2023/04/08 03:51:24;;;;;;;23.25;14.48;;;;;;;;;;4990224;28;20554;-79
2023/04/08 03:53:51;;;;;;;21.33;13.23;;;;;;;;;;4991369;28;20061;-80
2023/04/08 03:56:16;;;;;;;22.65;14.02;;;;;;;;;;4992792;28;20066;-79
2023/04/08 03:58:43;;;;;;;22.83;13.60;;;;;;;;;;4991428;28;20058;-79
2023/04/08 04:01:09;;;;;;;18.95;13.15;;;;;;;;;;4992512;28;20046;-80
2023/04/08 04:03:35;;;;;;;20.17;13.25;;;;;;;;;;4992095;28;20106;-79
2023/04/08 04:06:00;;;;;;;26.02;12.88;;;;;;;;;;4976727;28;20183;-80
2023/04/08 04:08:27;;;;;;;18.00;12.27;;;;;;;;;;4996391;28;20027;-80
2023/04/08 04:10:59;;;;;;;22.75;13.70;;;;;;;;;;4995206;28;20041;-79
2023/04/08 04:13:24;;;;;;;20.55;14.00;;;;;;;;;;4996410;28;20467;-79
2023/04/08 04:16:00;;;;;;;20.05;12.68;;;;;;;;;;4996023;28;20038;-81
2023/04/08 04:18:25;;;;;;;38.78;16.52;;;;;;;;;;4995833;28;20038;-80
2023/04/08 04:20:51;;;;;;;27.88;13.38;;;;;;;;;;4994849;28;20502;-79
2023/04/08 04:23:17;;;;;;;25.20;13.70;;;;;;;;;;4994705;28;20038;-79
2023/04/08 04:25:43;;;;;;;24.58;14.00;;;;;;;;;;4978374;28;20459;-80
2023/04/08 04:28:10;;;;;;;24.58;13.98;;;;;;;;;;5010994;28;20096;-79
2023/04/08 04:30:39;;;;;;;24.13;13.43;;;;;;;;;;4996264;28;20022;-79
2023/04/08 04:33:06;;;;;;;19.40;14.02;;;;;;;;;;4995335;28;20082;-80
2023/04/08 04:35:32;;;;;;;23.73;13.93;;;;;;;;;;4996406;28;20434;-80
2023/04/08 04:37:58;;;;;;;22.75;13.70;;;;;;;;;;4994551;28;20031;-81
2023/04/08 04:40:23;;;;;;;24.48;14.48;;;;;;;;;;4995697;28;20092;-81
2023/04/08 04:42:50;;;;;;;28.02;16.42;;;;;;;;;;4994588;28;20065;-80
2023/04/08 04:45:16;;;;;;;24.00;16.08;;;;;;;;;;4994429;28;20053;-80
2023/04/08 04:47:42;;;;;;;35.25;17.15;;;;;;;;;;4994501;28;20045;-81
2023/04/08 04:50:08;;;;;;;28.15;17.33;;;;;;;;;;4995407;28;20049;-78
2023/04/08 04:52:35;;;;;;;25.35;15.40;;;;;;;;;;4995566;28;20050;-79
2023/04/08 04:55:01;;;;;;;28.42;16.63;;;;;;;;;;4990466;28;20077;-81
2023/04/08 04:57:27;;;;;;;33.15;17.23;;;;;;;;;;4995467;28;20072;-80
2023/04/08 04:59:55;;;;;;;27.40;14.32;;;;;;;;;;4994762;28;20030;-82
2023/04/08 05:02:21;;;;;;;30.88;16.38;;;;;;;;;;4996223;28;20093;-83
2023/04/08 05:04:47;;;;;;;29.15;16.02;;;;;;;;;;4995977;28;20026;-81
2023/04/08 05:07:13;;;;;;;24.63;15.63;;;;;;;;;;4961803;28;20047;-81
2023/04/08 05:09:38;;;;;;;29.75;15.82;;;;;;;;;;4993683;28;20041;-83
2023/04/08 05:12:04;;;;;;;30.25;16.70;;;;;;;;;;4994975;28;20089;-79
2023/04/08 05:14:30;;;;;;;28.85;16.55;;;;;;;;;;4993729;28;20081;-80
2023/04/08 05:17:00;;;;;;;32.00;16.48;;;;;;;;;;4993068;28;20129;-80
2023/04/08 05:19:26;;;;;;;28.52;16.00;;;;;;;;;;4993743;28;20026;-82
2023/04/08 05:21:52;;;;;;;39.38;16.58;;;;;;;;;;4994250;28;20451;-82
2023/04/08 05:24:19;;;;;;;23.88;14.32;;;;;;;;;;4987154;28;20023;-82
2023/04/08 05:26:47;;;;;;;19.92;13.43;;;;;;;;;;4987080;28;20054;-81
2023/04/08 05:29:13;;;;;;;24.95;12.70;;;;;;;;;;4990965;28;20061;-82
2023/04/08 05:31:40;;;;;;;26.13;12.93;;;;;;;;;;4987990;28;20026;-82
2023/04/08 05:34:06;;;;;;;16.38;11.32;;;;;;;;;;4993768;28;20022;-80
2023/04/08 05:36:33;;;;;;;21.38;12.60;;;;;;;;;;4994754;28;20046;-82
2023/04/08 05:38:58;;;;;;;23.33;11.05;;;;;;;;;;4995485;28;20348;-83
2023/04/08 05:41:25;;;;;;;20.75;12.38;;;;;;;;;;4995192;28;20061;-83
2023/04/08 05:43:51;;;;;;;25.73;12.52;;;;;;;;;;4995600;28;20026;-81
2023/04/08 05:46:17;;;;;;;23.08;12.05;;;;;;;;;;4994164;28;20042;-82
2023/04/08 05:48:47;;;;;;;30.45;11.38;;;;;;;;;;4994602;28;20030;-79
2023/04/08 05:51:14;;;;;;;14.07;9.73;;;;;;;;;;4993811;28;20045;-84
2023/04/08 05:53:41;;;;;;;14.00;9.80;;;;;;;;;;4992792;28;20082;-86
2023/04/08 05:56:07;;;;;;;16.23;10.18;;;;;;;;;;4994187;28;20117;-86
2023/04/08 05:58:32;;;;;;;14.65;10.07;;;;;;;;;;4994623;28;20018;-86
2023/04/08 06:01:00;;;;;;;17.30;9.95;;;;;;;;;;4990036;28;20069;-86
2023/04/08 06:03:26;;;;;;;15.57;10.27;;;;;;;;;;4999537;28;20028;-83
2023/04/08 06:05:51;;;;;;;20.80;11.65;;;;;;;;;;5000226;28;20121;-83
2023/04/08 06:08:17;;;;;;;16.27;10.10;;;;;;;;;;4994460;28;20099;-84
2023/04/08 06:10:52;;;;;;;15.95;10.25;;;;;;;;;;4994653;28;20081;-80
2023/04/08 06:13:19;;;;;;;21.67;10.93;;;;;;;;;;4991124;28;20043;-82
2023/04/08 06:15:47;;;;;;;21.35;12.07;;;;;;;;;;4988127;28;20022;-82
2023/04/08 06:18:15;;;;;;;13.07;9.73;;;;;;;;;;4993650;28;20400;-82
2023/04/08 06:20:40;;;;;;;15.48;10.80;;;;;;;;;;4990159;28;20022;-84
2023/04/08 06:23:07;;;;;;;14.93;10.27;;;;;;;;;;4989654;28;20069;-83
2023/04/08 06:25:34;;;;;;;13.45;9.85;;;;;;;;;;4996097;28;20035;-83
2023/04/08 06:28:00;;;;;;;14.45;10.27;;;;;;;;;;4992243;28;20386;-83
2023/04/08 06:30:27;;;;;;;20.50;11.63;;;;;;;;;;4991189;28;20341;-83
2023/04/08 06:32:53;;;;;;;13.07;10.15;;;;;;;;;;4994075;28;20027;-83
2023/04/08 06:35:18;;;;;;;17.30;11.90;;;;;;;;;;4992183;28;20030;-81
2023/04/08 06:37:44;;;;;;;19.70;12.10;;;;;;;;;;5008557;28;20038;-83
2023/04/08 06:40:10;;;;;;;22.05;11.70;;;;;;;;;;4980076;28;20495;-84
2023/04/08 06:42:37;;;;;;;15.88;10.13;;;;;;;;;;4995984;28;20038;-82
2023/04/08 06:45:18;;;;;;;16.05;10.52;;;;;;;;;;4980961;28;20023;-82
2023/04/08 06:47:46;;;;;;;17.25;11.98;;;;;;;;;;4997521;28;20062;-82
2023/04/08 06:50:12;;;;;;;17.00;11.18;;;;;;;;;;4996322;28;20491;-82
2023/04/08 06:52:38;;;;;;;16.88;11.63;;;;;;;;;;5011297;28;20113;-82
2023/04/08 06:55:04;;;;;;;14.52;10.48;;;;;;;;;;4994634;28;20105;-83
2023/04/08 06:57:30;;;;;;;13.98;10.70;;;;;;;;;;4992603;28;20097;-80
2023/04/08 06:59:56;;;;;;;17.25;10.50;;;;;;;;;;4991990;28;20030;-80
2023/04/08 07:02:22;;;;;;;15.70;10.65;;;;;;;;;;5008648;28;20522;-82
2023/04/08 07:04:48;;;;;;;18.27;10.45;;;;;;;;;;4993879;28;20472;-80
2023/04/08 07:07:14;;;;;;;15.10;10.63;;;;;;;;;;4992376;28;20056;-81
2023/04/08 07:09:44;;;;;;;15.48;10.95;;;;;;;;;;4990272;28;20034;-82
2023/04/08 07:12:13;;;;;;;18.73;10.70;;;;;;;;;;4990722;28;20403;-82
2023/04/08 07:14:39;;;;;;;18.63;11.70;;;;;;;;;;4992654;28;20384;-83
2023/04/08 07:17:08;;;;;;;16.40;11.10;;;;;;;;;;4993151;28;20113;-83
2023/04/08 07:19:34;;;;;;;14.63;10.27;;;;;;;;;;4987367;28;20081;-83
2023/04/08 07:22:02;;;;;;;17.27;10.88;;;;;;;;;;4991771;28;20035;-81
2023/04/08 07:24:28;;;;;;;19.38;11.98;;;;;;;;;;4992109;28;20480;-80
2023/04/08 07:26:57;;;;;;;18.08;11.43;;;;;;;;;;4992214;28;20134;-79
2023/04/08 07:29:22;;;;;;;16.58;10.90;;;;;;;;;;4991016;28;20177;-80
2023/04/08 07:31:51;;;;;;;15.30;10.32;;;;;;;;;;4992284;28;20034;-79
2023/04/08 07:34:17;;;;;;;18.17;11.70;;;;;;;;;;4992088;28;20475;-80
2023/04/08 07:36:43;;;;;;;18.33;11.32;;;;;;;;;;4991816;28;20042;-81
2023/04/08 07:39:10;;;;;;;13.20;10.10;;;;;;;;;;4989719;28;20030;-80
2023/04/08 07:41:36;;;;;;;16.80;9.95;;;;;;;;;;4988462;28;20054;-79
2023/04/08 07:44:02;;;;;;;15.00;9.80;;;;;;;;;;4998868;28;20480;-80
2023/04/08 07:46:28;;;;;;;14.35;10.38;;;;;;;;;;4986197;28;20500;-83
2023/04/08 07:48:53;;;;;;;13.77;10.48;;;;;;;;;;4993114;28;20038;-81
2023/04/08 07:51:22;;;;;;;13.15;10.07;;;;;;;;;;4984451;28;20038;-82
2023/04/08 07:53:53;;;;;;;12.82;10.20;;;;;;;;;;4981446;28;20034;-80
2023/04/08 07:56:18;;;;;;;15.25;10.02;;;;;;;;;;4987049;28;20027;-82
2023/04/08 07:58:45;;;;;;;16.75;10.07;;;;;;;;;;4987204;28;20038;-81
2023/04/08 08:01:18;;;;;;;17.52;11.50;;;;;;;;;;4990419;28;20049;-82
2023/04/08 08:03:46;;;;;;;14.52;11.70;;;;;;;;;;4988252;28;20034;-82
2023/04/08 08:06:13;;;;;;;15.85;10.75;;;;;;;;;;4986887;28;20053;-83
2023/04/08 08:08:38;;;;;;;14.98;10.85;;;;;;;;;;4994629;28;20066;-83
2023/04/08 08:11:06;;;;;;;15.30;10.80;;;;;;;;;;4990080;28;20413;-82
2023/04/08 08:13:33;;;;;;;16.20;11.70;;;;;;;;;;4989517;28;20077;-83
2023/04/08 08:16:00;;;;;;;15.93;11.02;;;;;;;;;;4987315;28;20022;-83
2023/04/08 08:18:26;;;;;;;22.52;13.00;;;;;;;;;;4990227;28;20065;-84
2023/04/08 08:20:51;;;;;;;16.30;11.55;;;;;;;;;;4989693;28;20041;-83
2023/04/08 08:23:17;;;;;;;16.20;11.50;;;;;;;;;;4999448;28;20038;-83
2023/04/08 08:25:44;;;;;;;14.90;11.07;;;;;;;;;;4992550;28;20042;-84
2023/04/08 08:28:10;;;;;;;14.50;9.95;;;;;;;;;;4988494;28;20480;-84
2023/04/08 08:30:37;;;;;;;14.40;10.65;;;;;;;;;;4987478;28;20036;-81
2023/04/08 08:33:04;;;;;;;16.73;11.02;;;;;;;;;;4988478;28;20407;-85
2023/04/08 08:35:36;;;;;;;15.25;10.18;;;;;;;;;;4988587;28;20117;-83
2023/04/08 08:38:02;;;;;;;14.40;10.32;;;;;;;;;;4986632;28;20066;-80
2023/04/08 08:40:27;;;;;;;15.18;10.32;;;;;;;;;;4987836;28;20503;-82
2023/04/08 08:42:53;;;;;;;14.20;11.23;;;;;;;;;;4990433;28;20105;-84
2023/04/08 08:45:20;;;;;;;13.60;9.55;;;;;;;;;;5005575;28;20388;-84
2023/04/08 08:47:48;;;;;;;12.32;9.82;;;;;;;;;;4991198;28;20037;-83
2023/04/08 08:50:14;;;;;;;13.90;10.15;;;;;;;;;;4984795;28;20061;-83
2023/04/08 08:52:49;;;;;;;16.60;10.05;;;;;;;;;;4981222;28;20452;-84
2023/04/08 08:55:21;;;;;;;18.00;9.98;;;;;;;;;;5006743;28;20031;-81
2023/04/08 08:57:50;;;;;;;11.98;9.63;;;;;;;;;;5005141;28;20053;-84
2023/04/08 09:00:17;;;;;;;12.82;10.18;;;;;;;;;;4996550;28;20022;-83
2023/04/08 09:02:43;;;;;;;15.02;9.05;;;;;;;;;;4995541;28;20122;-84
2023/04/08 09:05:09;;;;;;;10.73;8.05;;;;;;;;;;4976800;28;20061;-84
2023/04/08 09:07:36;;;;;;;11.40;8.45;;;;;;;;;;4997621;28;20081;-85
2023/04/08 09:10:02;;;;;;;14.25;8.98;;;;;;;;;;4995481;28;20395;-83
2023/04/08 09:12:30;;;;;;;14.00;9.00;;;;;;;;;;4996715;28;20111;-82
2023/04/08 09:15:06;;;;;;;13.73;10.00;;;;;;;;;;4993058;28;20030;-84
2023/04/08 09:17:37;;;;;;;14.35;9.55;;;;;;;;;;4999820;28;20045;-83
2023/04/08 09:20:11;;;;;;;14.50;9.23;;;;;;;;;;4994613;28;20045;-83
2023/04/08 09:23:00;;;;;;;14.20;9.27;;;;;;;;;;4995913;28;20042;-83
2023/04/08 09:25:29;;;;;;;13.07;10.02;;;;;;;;;;4989368;28;20133;-81
2023/04/08 09:27:55;;;;;;;11.43;8.35;;;;;;;;;;4983728;28;20031;-81
2023/04/08 09:30:24;;;;;;;14.23;8.50;;;;;;;;;;4985517;28;20034;-79
2023/04/08 09:32:52;;;;;;;14.95;9.40;;;;;;;;;;4987184;28;20368;-81
2023/04/08 09:35:20;;;;;;;11.63;8.35;;;;;;;;;;4985245;28;20026;-83
2023/04/08 09:37:46;;;;;;;13.70;8.00;;;;;;;;;;4984771;28;20397;-82
2023/04/08 09:40:17;;;;;;;10.00;7.35;;;;;;;;;;4984744;28;20122;-81
2023/04/08 09:42:47;;;;;;;11.73;8.75;;;;;;;;;;4985030;28;20042;-81
2023/04/08 09:45:14;;;;;;;10.38;8.63;;;;;;;;;;4985055;28;20041;-83
2023/04/08 09:48:12;;;;;;;12.88;8.98;;;;;;;;;;4989756;28;20117;-81
2023/04/08 09:50:46;;;;;;;13.32;8.73;;;;;;;;;;4969698;28;20038;-81
2023/04/08 09:53:17;;;;;;;11.77;8.18;;;;;;;;;;4991212;28;20050;-81
2023/04/08 09:55:49;;;;;;;10.32;8.00;;;;;;;;;;4985299;28;20072;-82
2023/04/08 09:58:21;;;;;;;11.90;8.18;;;;;;;;;;5003966;28;20050;-81
2023/04/08 10:00:51;;;;;;;10.45;8.02;;;;;;;;;;4980470;28;20514;-84
2023/04/08 10:03:32;;;;;;;10.35;7.55;;;;;;;;;;4994337;28;20039;-81
2023/04/08 10:06:02;;;;;;;12.23;8.55;;;;;;;;;;4984039;28;20039;-86
2023/04/08 10:08:29;;;;;;;10.32;8.10;;;;;;;;;;4985966;28;20069;-83
2023/04/08 10:10:56;;;;;;;13.57;8.95;;;;;;;;;;4983710;28;20039;-81
2023/04/08 10:13:27;;;;;;;12.75;9.05;;;;;;;;;;4984535;28;20046;-82
2023/04/08 10:16:18;;;;;;;13.13;9.18;;;;;;;;;;4983413;28;20049;-84
2023/04/08 10:18:45;;;;;;;22.73;9.48;;;;;;;;;;4980590;28;20037;-87
2023/04/08 10:21:37;;;;;;;12.50;8.45;;;;;;;;;;4981025;28;20038;-86
2023/04/08 10:24:09;;;;;;;11.88;7.80;;;;;;;;;;4985780;28;20057;-82
2023/04/08 10:26:38;;;;;;;12.35;8.77;;;;;;;;;;4981956;28;20058;-85
2023/04/08 10:29:16;;;;;;;14.38;8.70;;;;;;;;;;4985658;28;20035;-85
2023/04/08 10:31:46;;;;;;;10.50;8.55;;;;;;;;;;4982114;28;20069;-85
2023/04/08 10:34:18;;;;;;;11.45;7.43;;;;;;;;;;5000325;28;20042;-82
2023/04/08 10:36:45;;;;;;;15.88;9.35;;;;;;;;;;4981583;28;20050;-83
2023/04/08 10:39:12;;;;;;;11.63;7.55;;;;;;;;;;4991226;28;20081;-83
2023/04/08 10:41:46;;;;;;;10.57;7.63;;;;;;;;;;4998295;28;20046;-83
2023/04/08 10:44:16;;;;;;;13.30;7.13;;;;;;;;;;4979405;28;20049;-83
2023/04/08 10:46:44;;;;;;;7.88;5.90;;;;;;;;;;4985079;28;20072;-85
2023/04/08 10:49:10;;;;;;;7.65;5.80;;;;;;;;;;4985599;28;20026;-83
2023/04/08 10:51:37;;;;;;;8.55;5.57;;;;;;;;;;4984362;28;20168;-86
2023/04/08 10:54:09;;;;;;;10.73;6.40;;;;;;;;;;4983408;28;20025;-85
2023/04/08 10:56:53;;;;;;;9.30;6.13;;;;;;;;;;4985917;28;20515;-89
2023/04/08 10:59:33;;;;;;;10.30;6.35;;;;;;;;;;5020500;28;20035;-86
2023/04/08 11:02:00;;;;;;;11.85;6.93;;;;;;;;;;5016333;28;20098;-85
2023/04/08 11:04:26;;;;;;;9.90;6.18;;;;;;;;;;4995738;28;20027;-85
2023/04/08 11:06:55;;;;;;;8.38;6.18;;;;;;;;;;5000626;28;20033;-85
2023/04/08 11:09:21;;;;;;;7.70;5.57;;;;;;;;;;5003481;28;20019;-84
2023/04/08 11:11:48;;;;;;;9.27;6.05;;;;;;;;;;4993542;28;20424;-85
2023/04/08 11:14:18;;;;;;;7.25;5.80;;;;;;;;;;4983979;28;20026;-85
2023/04/08 11:16:44;;;;;;;8.90;5.97;;;;;;;;;;4981637;28;20109;-85
2023/04/08 11:19:15;;;;;;;12.70;8.43;;;;;;;;;;4982623;28;20392;-86
2023/04/08 11:21:41;;;;;;;8.40;6.38;;;;;;;;;;4997087;28;20061;-83
2023/04/08 11:24:10;;;;;;;8.88;5.85;;;;;;;;;;4980400;28;20027;-84
2023/04/08 11:26:37;;;;;;;11.52;6.05;;;;;;;;;;4980059;28;20507;-84
2023/04/08 11:29:06;;;;;;;8.77;6.45;;;;;;;;;;4978994;28;20050;-84
2023/04/08 11:31:33;;;;;;;13.43;8.48;;;;;;;;;;4988463;28;20046;-83
2023/04/08 11:33:58;;;;;;;9.40;6.57;;;;;;;;;;4964422;28;20072;-83
2023/04/08 11:36:25;;;;;;;9.95;7.05;;;;;;;;;;4985925;28;20121;-86
2023/04/08 11:38:54;;;;;;;11.45;7.72;;;;;;;;;;4979918;28;20049;-84
2023/04/08 11:41:23;;;;;;;11.20;7.25;;;;;;;;;;4986893;28;20436;-85
2023/04/08 11:43:56;;;;;;;8.60;5.38;;;;;;;;;;4966380;28;20043;-82
2023/04/08 11:46:22;;;;;;;6.90;5.35;;;;;;;;;;4981204;28;20605;-82
2023/04/08 11:49:03;;;;;;;6.90;5.53;;;;;;;;;;4981624;28;20053;-78
2023/04/08 11:51:31;;;;;;;7.43;5.78;;;;;;;;;;5004746;28;20049;-80
2023/04/08 11:53:57;;;;;;;8.43;5.68;;;;;;;;;;4982321;28;20038;-79
2023/04/08 11:56:25;;;;;;;11.68;7.10;;;;;;;;;;4979321;28;20416;-79
2023/04/08 11:58:52;;;;;;;8.45;5.47;;;;;;;;;;4979232;28;20453;-77
2023/04/08 12:01:19;;;;;;;7.72;5.80;;;;;;;;;;4981137;28;20046;-80
2023/04/08 12:03:59;;;;;;;12.98;8.95;;;;;;;;;;4977796;28;20025;-77
2023/04/08 12:06:28;;;;;;;9.55;7.13;;;;;;;;;;4982349;28;20488;-77
2023/04/08 12:08:56;;;;;;;7.50;5.78;;;;;;;;;;4980236;28;20105;-78
2023/04/08 12:11:23;;;;;;;7.10;4.80;;;;;;;;;;4983798;28;20520;-78
2023/04/08 12:13:50;;;;;;;13.65;8.05;;;;;;;;;;4979677;28;20051;-77
2023/04/08 12:16:15;;;;;;;15.40;9.77;;;;;;;;;;4980820;28;20053;-80
2023/04/08 12:18:41;;;;;;;9.43;5.60;;;;;;;;;;4990442;28;20072;-78
2023/04/08 12:21:07;;;;;;;9.65;5.68;;;;;;;;;;4990453;28;20042;-78
2023/04/08 12:23:34;;;;;;;6.53;5.03;;;;;;;;;;4990244;28;20045;-78
2023/04/08 12:26:01;;;;;;;9.52;6.72;;;;;;;;;;4990778;28;20035;-77
2023/04/08 12:28:27;;;;;;;9.68;5.80;;;;;;;;;;4994436;28;20473;-78
2023/04/08 12:30:53;;;;;;;8.38;5.97;;;;;;;;;;4996239;28;20034;-79
2023/04/08 12:33:18;;;;;;;7.60;5.57;;;;;;;;;;4995295;28;20027;-77
2023/04/08 12:35:44;;;;;;;7.43;5.32;;;;;;;;;;4995013;28;20053;-78
2023/04/08 12:38:11;;;;;;;8.10;5.97;;;;;;;;;;5011231;28;20024;-77
2023/04/08 12:40:38;;;;;;;7.03;5.72;;;;;;;;;;4995767;28;20480;-79
2023/04/08 12:43:05;;;;;;;7.15;5.50;;;;;;;;;;4995762;28;20034;-78
2023/04/08 12:45:32;;;;;;;8.25;5.93;;;;;;;;;;4996055;28;20031;-79
2023/04/08 12:47:57;;;;;;;8.10;5.68;;;;;;;;;;4995860;28;20032;-79
2023/04/08 12:50:26;;;;;;;6.65;5.13;;;;;;;;;;4978507;28;20042;-77
2023/04/08 12:52:53;;;;;;;9.50;6.35;;;;;;;;;;4994349;28;20084;-76
2023/04/08 12:55:23;;;;;;;7.82;5.88;;;;;;;;;;4995754;28;20034;-80
2023/04/08 12:57:50;;;;;;;7.95;6.05;;;;;;;;;;4994815;28;20179;-76
2023/04/08 13:00:16;;;;;;;6.75;5.30;;;;;;;;;;4995665;28;20026;-78
2023/04/08 13:02:43;;;;;;;8.02;5.70;;;;;;;;;;4996202;28;20125;-77
2023/04/08 13:05:10;;;;;;;6.65;5.30;;;;;;;;;;4994551;28;20117;-79
2023/04/08 13:07:36;;;;;;;9.30;5.72;;;;;;;;;;4995376;28;20046;-79
2023/04/08 13:10:03;;;;;;;7.97;5.53;;;;;;;;;;4996093;28;20108;-77
2023/04/08 13:12:31;;;;;;;7.68;5.75;;;;;;;;;;4995730;28;20569;-79
2023/04/08 13:14:57;;;;;;;9.10;5.97;;;;;;;;;;4978444;28;20432;-80
2023/04/08 13:17:23;;;;;;;7.10;5.28;;;;;;;;;;4994734;28;20121;-79
2023/04/08 13:19:50;;;;;;;9.02;5.70;;;;;;;;;;4994742;28;20548;-77
2023/04/08 13:22:15;;;;;;;8.30;6.15;;;;;;;;;;4994684;28;20041;-80
2023/04/08 13:24:41;;;;;;;7.85;5.70;;;;;;;;;;4995728;28;20030;-80
2023/04/08 13:27:08;;;;;;;9.15;5.15;;;;;;;;;;5011157;28;20034;-79
2023/04/08 13:29:33;;;;;;;8.63;6.53;;;;;;;;;;4993813;28;20030;-79
2023/04/08 13:32:01;;;;;;;9.05;5.70;;;;;;;;;;4995348;28;20048;-80
2023/04/08 13:34:27;;;;;;;8.50;5.82;;;;;;;;;;4993448;28;20034;-81
2023/04/08 13:36:56;;;;;;;6.90;5.82;;;;;;;;;;4993798;28;20035;-80
2023/04/08 13:39:22;;;;;;;8.15;5.53;;;;;;;;;;4993535;28;20038;-80
2023/04/08 13:41:48;;;;;;;9.10;5.78;;;;;;;;;;4994548;28;20037;-79
2023/04/08 13:44:16;;;;;;;6.93;5.53;;;;;;;;;;4993744;28;20521;-80
2023/04/08 13:46:43;;;;;;;7.45;5.90;;;;;;;;;;4977453;28;20054;-78
2023/04/08 13:49:12;;;;;;;10.40;5.63;;;;;;;;;;4994817;28;20116;-79
2023/04/08 13:51:38;;;;;;;7.50;5.68;;;;;;;;;;4994904;28;20038;-79
2023/04/08 13:54:04;;;;;;;7.40;5.65;;;;;;;;;;5001294;28;20588;-79
2023/04/08 13:56:30;;;;;;;7.97;5.65;;;;;;;;;;4993863;28;20038;-81
2023/04/08 13:58:58;;;;;;;8.38;5.38;;;;;;;;;;5003595;28;20018;-79
2023/04/08 14:01:24;;;;;;;7.47;5.40;;;;;;;;;;4994408;28;20053;-79
2023/04/08 14:03:50;;;;;;;7.57;5.10;;;;;;;;;;4992618;28;20484;-78
2023/04/08 14:06:16;;;;;;;8.70;5.22;;;;;;;;;;4993552;28;20515;-78
2023/04/08 14:08:42;;;;;;;6.43;5.30;;;;;;;;;;4994207;28;20051;-79
2023/04/08 14:11:08;;;;;;;5.85;4.55;;;;;;;;;;5009405;28;20026;-78
2023/04/08 14:13:35;;;;;;;6.57;5.47;;;;;;;;;;4999570;28;20076;-78
2023/04/08 14:16:02;;;;;;;8.77;5.78;;;;;;;;;;4993053;28;20046;-78
2023/04/08 14:18:28;;;;;;;7.63;6.35;;;;;;;;;;5006423;28;20116;-77
2023/04/08 14:20:54;;;;;;;12.55;6.72;;;;;;;;;;5013637;28;20146;-78
2023/04/08 14:23:20;;;;;;;5.78;4.07;;;;;;;;;;5013690;28;20030;-79
2023/04/08 14:25:46;;;;;;;5.95;5.03;;;;;;;;;;5011800;28;20040;-78
2023/04/08 14:28:12;;;;;;;8.10;6.13;;;;;;;;;;4995584;28;20496;-81
2023/04/08 14:30:39;;;;;;;7.90;6.03;;;;;;;;;;4993768;28;20073;-81